Time,TemperatureF,DewpointF,PressureIn,WindDirection,WindDirectionDegrees,WindSpeedMPH,WindSpeedGustMPH,Humidity,HourlyPrecipIn,Conditions,Clouds,dailyrainin,SoftwareType,DateUTC
2013-04-13 00:00:00,49.8,42.2,29.82,SW,233,0.0,1.0,75,0.00,,,0.24,WeatherCatV1.11B39,2013-04-13 04:00:00,
2013-04-13 00:01:00,49.8,40.8,29.82,SW,230,1.0,3.0,71,0.00,,,0.00,WeatherCatV1.11B39,2013-04-13 04:01:00,
2013-04-13 00:06:00,50.1,42.1,29.83,SW,231,2.0,3.0,74,0.00,,,0.00,WeatherCatV1.11B39,2013-04-13 04:06:00,
2013-04-13 00:11:00,50.8,41.4,29.82,WSW,250,1.0,5.0,70,0.00,,,0.00,WeatherCatV1.11B39,2013-04-13 04:11:00,
2013-04-13 00:16:00,51.3,41.9,29.82,SSE,166,1.0,6.0,70,0.00,,,0.00,WeatherCatV1.11B39,2013-04-13 04:16:00,
2013-04-13 00:21:00,51.8,40.8,29.82,SW,227,2.0,5.0,66,0.00,,,0.00,WeatherCatV1.11B39,2013-04-13 04:21:00,
2013-04-13 00:26:00,52.3,39.7,29.83,SSW,200,1.0,5.0,62,0.00,,,0.00,WeatherCatV1.11B39,2013-04-13 04:26:00,
2013-04-13 00:31:00,53.2,39.7,29.82,WSW,238,4.0,11.0,60,0.00,,,0.00,WeatherCatV1.11B39,2013-04-13 04:31:00,
2013-04-13 00:36:00,54.0,39.6,29.82,WSW,248,6.0,11.0,58,0.00,,,0.00,WeatherCatV1.11B39,2013-04-13 04:36:00,
2013-04-13 00:41:00,54.6,39.7,29.82,SW,224,6.0,12.0,57,0.00,,,0.00,WeatherCatV1.11B39,2013-04-13 04:41:00,
2013-04-13 00:46:00,55.2,38.8,29.82,WSW,246,11.0,18.0,54,0.00,,,0.00,WeatherCatV1.11B39,2013-04-13 04:46:00,
2013-04-13 00:51:00,55.5,39.1,29.82,SW,228,4.0,7.0,54,0.00,,,0.00,WeatherCatV1.11B39,2013-04-13 04:51:00,
2013-04-13 00:56:00,55.3,38.9,29.83,SSW,200,1.0,6.0,54,0.00,,,0.00,WeatherCatV1.11B39,2013-04-13 04:56:00,
2013-04-13 01:01:00,55.2,39.3,29.83,West,259,3.0,5.0,55,0.00,,,0.00,WeatherCatV1.11B39,2013-04-13 05:01:00,
2013-04-13 01:06:00,55.3,40.3,29.83,SW,217,3.0,3.0,57,0.00,,,0.00,WeatherCatV1.11B39,2013-04-13 05:06:00,
2013-04-13 01:11:00,55.2,38.8,29.83,WSW,243,4.0,8.0,54,0.00,,,0.00,WeatherCatV1.11B39,2013-04-13 05:11:00,
2013-04-13 01:16:00,55.1,38.8,29.83,WSW,247,3.0,4.0,54,0.00,,,0.00,WeatherCatV1.11B39,2013-04-13 05:16:00,
2013-04-13 01:21:00,54.9,39.5,29.82,West,263,4.0,5.0,56,0.00,,,0.00,WeatherCatV1.11B39,2013-04-13 05:21:00,
2013-04-13 01:26:00,55.0,39.1,29.82,WNW,291,6.0,13.0,55,0.00,,,0.00,WeatherCatV1.11B39,2013-04-13 05:26:00,
2013-04-13 01:31:00,55.0,38.7,29.82,WSW,253,4.0,10.0,54,0.00,,,0.00,WeatherCatV1.11B39,2013-04-13 05:31:00,
2013-04-13 01:36:00,54.9,38.6,29.82,SW,233,5.0,6.0,54,0.00,,,0.00,WeatherCatV1.11B39,2013-04-13 05:36:00,
2013-04-13 01:41:00,55.0,39.1,29.82,South,178,1.0,7.0,55,0.00,,,0.00,WeatherCatV1.11B39,2013-04-13 05:41:00,
2013-04-13 01:46:00,55.0,38.7,29.82,WSW,248,4.0,6.0,54,0.00,,,0.00,WeatherCatV1.11B39,2013-04-13 05:46:00,
2013-04-13 01:51:00,55.1,38.8,29.81,WSW,250,6.0,9.0,54,0.00,,,0.00,WeatherCatV1.11B39,2013-04-13 05:51:00,
2013-04-13 01:56:00,55.1,38.8,29.81,West,269,5.0,10.0,54,0.00,,,0.00,WeatherCatV1.11B39,2013-04-13 05:56:00,
2013-04-13 02:01:00,55.3,38.5,29.81,SW,234,3.0,7.0,53,0.00,,,0.00,WeatherCatV1.11B39,2013-04-13 06:01:00,
2013-04-13 02:06:00,55.2,39.8,29.81,SSW,194,10.0,12.0,56,0.00,,,0.00,WeatherCatV1.11B39,2013-04-13 06:06:00,
2013-04-13 02:11:00,55.4,38.6,29.82,WSW,254,5.0,7.0,53,0.00,,,0.00,WeatherCatV1.11B39,2013-04-13 06:11:00,
2013-04-13 02:16:00,55.5,39.1,29.82,South,178,2.0,8.0,54,0.00,,,0.00,WeatherCatV1.11B39,2013-04-13 06:16:00,
2013-04-13 02:21:00,55.5,39.1,29.82,South,186,2.0,2.0,54,0.00,,,0.00,WeatherCatV1.11B39,2013-04-13 06:21:00,
2013-04-13 02:27:00,55.3,38.9,29.82,SW,219,3.0,5.0,54,0.00,,,0.00,WeatherCatV1.11B39,2013-04-13 06:27:00,
2013-04-13 02:32:00,55.2,39.3,29.82,SW,219,0.0,1.0,55,0.00,,,0.00,WeatherCatV1.11B39,2013-04-13 06:32:00,
2013-04-13 02:37:00,55.1,40.1,29.82,SW,217,4.0,5.0,57,0.00,,,0.00,WeatherCatV1.11B39,2013-04-13 06:37:00,
2013-04-13 02:42:00,55.0,39.6,29.82,WSW,258,4.0,6.0,56,0.00,,,0.00,WeatherCatV1.11B39,2013-04-13 06:42:00,
2013-04-13 02:47:00,55.0,39.1,29.82,WSW,255,4.0,8.0,55,0.00,,,0.00,WeatherCatV1.11B39,2013-04-13 06:47:00,
2013-04-13 02:52:00,55.2,40.7,29.82,West,267,3.0,5.0,58,0.00,,,0.00,WeatherCatV1.11B39,2013-04-13 06:52:00,
2013-04-13 02:57:00,55.1,40.1,29.82,WSW,256,4.0,6.0,57,0.00,,,0.00,WeatherCatV1.11B39,2013-04-13 06:57:00,
2013-04-13 03:02:00,55.0,41.4,29.82,SW,222,3.0,5.0,60,0.00,,,0.00,WeatherCatV1.11B39,2013-04-13 07:02:00,
2013-04-13 03:08:00,55.1,40.6,29.82,WSW,251,3.0,5.0,58,0.00,,,0.00,WeatherCatV1.11B39,2013-04-13 07:08:00,
2013-04-13 03:13:00,55.1,39.7,29.82,WSW,256,2.0,4.0,56,0.00,,,0.00,WeatherCatV1.11B39,2013-04-13 07:13:00,
2013-04-13 03:18:00,54.8,39.9,29.82,WSW,254,2.0,3.0,57,0.00,,,0.00,WeatherCatV1.11B39,2013-04-13 07:18:00,
2013-04-13 03:23:00,54.5,40.5,29.82,WSW,252,1.0,3.0,59,0.00,,,0.00,WeatherCatV1.11B39,2013-04-13 07:23:00,
2013-04-13 03:28:00,54.6,39.7,29.82,WSW,251,1.0,4.0,57,0.00,,,0.00,WeatherCatV1.11B39,2013-04-13 07:28:00,
2013-04-13 03:33:00,54.8,39.9,29.81,SSW,195,10.0,11.0,57,0.00,,,0.00,WeatherCatV1.11B39,2013-04-13 07:33:00,
2013-04-13 03:38:00,55.2,39.8,29.81,West,268,1.0,8.0,56,0.00,,,0.00,WeatherCatV1.11B39,2013-04-13 07:38:00,
2013-04-13 03:43:00,55.1,39.7,29.82,WSW,243,4.0,6.0,56,0.00,,,0.00,WeatherCatV1.11B39,2013-04-13 07:43:00,
2013-04-13 03:48:00,55.0,40.0,29.82,West,260,3.0,3.0,57,0.00,,,0.00,WeatherCatV1.11B39,2013-04-13 07:48:00,
2013-04-13 03:53:00,54.7,39.3,29.82,West,265,2.0,5.0,56,0.00,,,0.00,WeatherCatV1.11B39,2013-04-13 07:53:00,
2013-04-13 03:58:00,54.5,39.6,29.82,SW,230,4.0,4.0,57,0.00,,,0.00,WeatherCatV1.11B39,2013-04-13 07:58:00,
2013-04-13 04:03:00,54.6,39.7,29.82,SW,236,3.0,7.0,57,0.00,,,0.00,WeatherCatV1.11B39,2013-04-13 08:03:00,
2013-04-13 04:08:00,54.6,40.6,29.82,WSW,244,3.0,4.0,59,0.00,,,0.00,WeatherCatV1.11B39,2013-04-13 08:08:00,
2013-04-13 04:13:00,54.6,39.7,29.82,SSW,192,7.0,11.0,57,0.00,,,0.00,WeatherCatV1.11B39,2013-04-13 08:13:00,
2013-04-13 04:18:00,55.0,40.5,29.82,SSW,211,2.0,6.0,58,0.00,,,0.00,WeatherCatV1.11B39,2013-04-13 08:18:00,
2013-04-13 04:23:00,55.0,40.0,29.82,WSW,242,3.0,7.0,57,0.00,,,0.00,WeatherCatV1.11B39,2013-04-13 08:23:00,
2013-04-13 04:28:00,55.0,41.8,29.82,SSW,207,3.0,5.0,61,0.00,,,0.00,WeatherCatV1.11B39,2013-04-13 08:28:00,
2013-04-13 04:33:00,54.9,40.0,29.82,WNW,292,2.0,5.0,57,0.00,,,0.00,WeatherCatV1.11B39,2013-04-13 08:33:00,
2013-04-13 04:38:00,54.9,41.3,29.82,West,262,3.0,4.0,60,0.00,,,0.00,WeatherCatV1.11B39,2013-04-13 08:38:00,
2013-04-13 04:43:00,54.6,40.1,29.83,WSW,243,1.0,6.0,58,0.00,,,0.00,WeatherCatV1.11B39,2013-04-13 08:43:00,
2013-04-13 04:48:00,54.3,39.8,29.83,SSW,204,4.0,6.0,58,0.00,,,0.00,WeatherCatV1.11B39,2013-04-13 08:48:00,
2013-04-13 04:53:00,54.2,39.7,29.83,West,268,6.0,8.0,58,0.00,,,0.00,WeatherCatV1.11B39,2013-04-13 08:53:00,
2013-04-13 04:58:00,54.6,39.7,29.83,SW,221,5.0,8.0,57,0.00,,,0.00,WeatherCatV1.11B39,2013-04-13 08:58:00,
2013-04-13 05:02:00,55.0,40.9,29.83,West,270,4.0,5.0,59,0.00,,,0.00,WeatherCatV1.11B39,2013-04-13 09:02:00,
2013-04-13 05:07:00,54.9,40.0,29.83,SSW,209,2.0,3.0,57,0.00,,,0.00,WeatherCatV1.11B39,2013-04-13 09:07:00,
2013-04-13 05:12:00,54.7,39.8,29.83,West,279,4.0,9.0,57,0.00,,,0.00,WeatherCatV1.11B39,2013-04-13 09:12:00,
2013-04-13 05:17:00,54.6,40.1,29.83,SSW,213,2.0,2.0,58,0.00,,,0.00,WeatherCatV1.11B39,2013-04-13 09:17:00,
2013-04-13 05:22:00,54.4,39.5,29.83,SW,224,1.0,5.0,57,0.00,,,0.00,WeatherCatV1.11B39,2013-04-13 09:22:00,
2013-04-13 05:27:00,54.2,39.7,29.83,SW,224,2.0,4.0,58,0.00,,,0.00,WeatherCatV1.11B39,2013-04-13 09:27:00,
2013-04-13 05:32:00,54.1,39.7,29.83,SW,223,4.0,8.0,58,0.00,,,0.00,WeatherCatV1.11B39,2013-04-13 09:32:00,
2013-04-13 05:37:00,54.0,40.0,29.83,WSW,250,3.0,5.0,59,0.00,,,0.00,WeatherCatV1.11B39,2013-04-13 09:37:00,
2013-04-13 05:42:00,54.0,39.6,29.83,SSW,192,2.0,6.0,58,0.00,,,0.00,WeatherCatV1.11B39,2013-04-13 09:42:00,
2013-04-13 05:47:00,53.9,39.5,29.84,West,261,4.0,5.0,58,0.00,,,0.00,WeatherCatV1.11B39,2013-04-13 09:47:00,
2013-04-13 05:52:00,54.4,39.5,29.83,WSW,255,5.0,12.0,57,0.00,,,0.00,WeatherCatV1.11B39,2013-04-13 09:52:00,
2013-04-13 05:57:00,54.9,39.5,29.84,WSW,252,2.0,2.0,56,0.00,,,0.00,WeatherCatV1.11B39,2013-04-13 09:57:00,
2013-04-13 06:02:00,55.0,39.6,29.84,WSW,242,3.0,7.0,56,0.00,,,0.00,WeatherCatV1.11B39,2013-04-13 10:02:00,
2013-04-13 06:07:00,55.1,38.8,29.84,West,263,5.0,5.0,54,0.00,,,0.00,WeatherCatV1.11B39,2013-04-13 10:07:00,
2013-04-13 06:13:00,55.2,38.8,29.84,West,270,7.0,11.0,54,0.00,,,0.00,WeatherCatV1.11B39,2013-04-13 10:13:00,
2013-04-13 06:18:00,55.4,38.1,29.84,SW,226,8.0,18.0,52,0.00,,,0.00,WeatherCatV1.11B39,2013-04-13 10:18:00,
2013-04-13 06:23:00,55.4,37.6,29.83,SW,219,5.0,6.0,51,0.00,,,0.00,WeatherCatV1.11B39,2013-04-13 10:23:00,
2013-04-13 06:28:00,55.0,37.7,29.84,WSW,247,3.0,11.0,52,0.00,,,0.00,WeatherCatV1.11B39,2013-04-13 10:28:00,
2013-04-13 06:33:00,55.0,37.7,29.84,West,264,2.0,7.0,52,0.00,,,0.00,WeatherCatV1.11B39,2013-04-13 10:33:00,
2013-04-13 06:38:00,54.9,38.6,29.84,West,264,1.0,2.0,54,0.00,,,0.00,WeatherCatV1.11B39,2013-04-13 10:38:00,
2013-04-13 06:43:00,54.5,37.2,29.84,West,273,0.0,4.0,52,0.00,,,0.00,WeatherCatV1.11B39,2013-04-13 10:43:00,
2013-04-13 06:48:00,54.0,38.2,29.85,West,261,1.0,9.0,55,0.00,,,0.00,WeatherCatV1.11B39,2013-04-13 10:48:00,
2013-04-13 06:53:00,54.1,38.8,29.85,WSW,246,2.0,11.0,56,0.00,,,0.00,WeatherCatV1.11B39,2013-04-13 10:53:00,
2013-04-13 06:58:00,53.9,37.2,29.85,WSW,246,3.0,5.0,53,0.00,,,0.00,WeatherCatV1.11B39,2013-04-13 10:58:00,
2013-04-13 07:03:00,54.0,37.7,29.85,SW,233,0.0,2.0,54,0.00,,,0.00,WeatherCatV1.11B39,2013-04-13 11:03:00,
2013-04-13 07:08:00,53.8,38.5,29.86,SW,233,0.0,2.0,56,0.00,,,0.00,WeatherCatV1.11B39,2013-04-13 11:08:00,
2013-04-13 07:13:00,53.3,38.9,29.86,South,181,2.0,3.0,58,0.00,,,0.00,WeatherCatV1.11B39,2013-04-13 11:13:00,
2013-04-13 07:18:00,52.8,38.4,29.86,South,181,0.0,1.0,58,0.00,,,0.00,WeatherCatV1.11B39,2013-04-13 11:18:00,
2013-04-13 07:23:00,52.1,38.6,29.86,South,185,3.0,3.0,60,0.00,,,0.00,WeatherCatV1.11B39,2013-04-13 11:23:00,
2013-04-13 07:28:00,51.7,37.8,29.87,SSW,192,1.0,3.0,59,0.00,,,0.00,WeatherCatV1.11B39,2013-04-13 11:28:00,
2013-04-13 07:33:00,51.6,38.6,29.87,SSW,192,2.0,3.0,61,0.00,,,0.00,WeatherCatV1.11B39,2013-04-13 11:33:00,
2013-04-13 07:38:00,51.4,37.6,29.87,SSW,192,0.0,0.0,59,0.00,,,0.00,WeatherCatV1.11B39,2013-04-13 11:38:00,
2013-04-13 07:43:00,51.3,38.3,29.87,West,259,0.0,0.0,61,0.00,,,0.00,WeatherCatV1.11B39,2013-04-13 11:43:00,
2013-04-13 07:48:00,51.2,37.4,29.88,West,259,0.0,2.0,59,0.00,,,0.00,WeatherCatV1.11B39,2013-04-13 11:48:00,
2013-04-13 07:53:00,51.5,38.5,29.88,West,259,4.0,4.0,61,0.00,,,0.00,WeatherCatV1.11B39,2013-04-13 11:53:00,
2013-04-13 07:58:00,51.8,37.5,29.89,West,263,4.0,7.0,58,0.00,,,0.00,WeatherCatV1.11B39,2013-04-13 11:58:00,
2013-04-13 08:03:00,53.0,38.6,29.89,West,261,3.0,4.0,58,0.00,,,0.00,WeatherCatV1.11B39,2013-04-13 12:03:00,
2013-04-13 08:08:00,53.7,37.0,29.89,WSW,252,3.0,7.0,53,0.00,,,0.00,WeatherCatV1.11B39,2013-04-13 12:08:00,
2013-04-13 08:13:00,54.1,37.4,29.89,West,272,4.0,7.0,53,0.00,,,0.00,WeatherCatV1.11B39,2013-04-13 12:13:00,
2013-04-13 08:18:00,54.5,36.7,29.89,WSW,240,5.0,5.0,51,0.00,,,0.00,WeatherCatV1.11B39,2013-04-13 12:18:00,
2013-04-13 08:23:00,54.9,37.6,29.89,WSW,240,0.0,3.0,52,0.00,,,0.00,WeatherCatV1.11B39,2013-04-13 12:23:00,
2013-04-13 08:28:00,55.4,37.1,29.90,West,264,5.0,5.0,50,0.00,,,0.00,WeatherCatV1.11B39,2013-04-13 12:28:00,
2013-04-13 08:33:00,55.8,37.4,29.90,West,267,0.0,0.0,50,0.00,,,0.00,WeatherCatV1.11B39,2013-04-13 12:33:00,
2013-04-13 08:38:00,56.1,37.7,29.90,West,262,2.0,2.0,50,0.00,,,0.00,WeatherCatV1.11B39,2013-04-13 12:38:00,
2013-04-13 08:43:00,56.3,36.9,29.90,West,261,3.0,3.0,48,0.00,,,0.00,WeatherCatV1.11B39,2013-04-13 12:43:00,
2013-04-13 08:47:00,56.7,37.8,29.90,West,261,0.0,0.0,49,0.00,,,0.00,WeatherCatV1.11B39,2013-04-13 12:47:00,
2013-04-13 08:52:00,57.3,37.8,29.90,West,261,0.0,1.0,48,0.00,,,0.00,WeatherCatV1.11B39,2013-04-13 12:52:00,
2013-04-13 08:57:00,57.6,37.0,29.90,West,261,4.0,4.0,46,0.00,,,0.00,WeatherCatV1.11B39,2013-04-13 12:57:00,
2013-04-13 09:02:00,57.7,35.4,29.90,NW,313,7.0,9.0,43,0.00,,,0.00,WeatherCatV1.11B39,2013-04-13 13:02:00,
2013-04-13 09:07:00,58.0,36.2,29.90,SSW,200,7.0,12.0,44,0.00,,,0.00,WeatherCatV1.11B39,2013-04-13 13:07:00,
2013-04-13 09:12:00,58.1,35.7,29.91,SSW,213,0.0,7.0,43,0.00,,,0.00,WeatherCatV1.11B39,2013-04-13 13:12:00,
2013-04-13 09:17:00,58.3,35.3,29.91,SW,225,2.0,6.0,42,0.00,,,0.00,WeatherCatV1.11B39,2013-04-13 13:17:00,
2013-04-13 09:22:00,58.4,36.6,29.91,West,275,7.0,8.0,44,0.00,,,0.00,WeatherCatV1.11B39,2013-04-13 13:22:00,
2013-04-13 09:27:00,58.7,35.1,29.91,West,268,4.0,5.0,41,0.00,,,0.00,WeatherCatV1.11B39,2013-04-13 13:27:00,
2013-04-13 09:32:00,58.9,35.8,29.91,SW,232,4.0,10.0,42,0.00,,,0.00,WeatherCatV1.11B39,2013-04-13 13:32:00,
2013-04-13 09:37:00,59.1,36.6,29.92,SSW,207,3.0,8.0,43,0.00,,,0.00,WeatherCatV1.11B39,2013-04-13 13:37:00,
2013-04-13 09:42:00,59.3,34.3,29.92,SSW,196,5.0,7.0,39,0.00,,,0.00,WeatherCatV1.11B39,2013-04-13 13:42:00,
2013-04-13 09:47:00,59.5,34.5,29.92,SSW,207,5.0,8.0,39,0.00,,,0.00,WeatherCatV1.11B39,2013-04-13 13:47:00,
2013-04-13 09:52:00,59.7,34.1,29.93,SW,221,8.0,10.0,38,0.00,,,0.00,WeatherCatV1.11B39,2013-04-13 13:52:00,
2013-04-13 09:57:00,60.1,36.3,29.93,SSE,160,6.0,6.0,41,0.00,,,0.00,WeatherCatV1.11B39,2013-04-13 13:57:00,
2013-04-13 10:02:00,60.2,35.2,29.93,SSW,194,5.0,10.0,39,0.00,,,0.00,WeatherCatV1.11B39,2013-04-13 14:02:00,
2013-04-13 10:07:00,60.1,35.7,29.93,SW,226,6.0,12.0,40,0.00,,,0.00,WeatherCatV1.11B39,2013-04-13 14:07:00,
2013-04-13 10:12:00,60.4,37.8,29.93,West,263,10.0,12.0,43,0.00,,,0.00,WeatherCatV1.11B39,2013-04-13 14:12:00,
2013-04-13 10:17:00,60.4,36.0,29.94,SW,229,5.0,13.0,40,0.00,,,0.00,WeatherCatV1.11B39,2013-04-13 14:17:00,
2013-04-13 10:22:00,60.5,35.4,29.94,SW,227,5.0,11.0,39,0.00,,,0.00,WeatherCatV1.11B39,2013-04-13 14:22:00,
2013-04-13 10:27:00,60.4,35.3,29.94,South,188,13.0,16.0,39,0.00,,,0.00,WeatherCatV1.11B39,2013-04-13 14:27:00,
2013-04-13 10:32:00,60.5,35.4,29.94,South,171,7.0,11.0,39,0.00,,,0.00,WeatherCatV1.11B39,2013-04-13 14:32:00,
2013-04-13 10:37:00,60.6,35.5,29.94,SSW,211,7.0,12.0,39,0.00,,,0.00,WeatherCatV1.11B39,2013-04-13 14:37:00,
2013-04-13 10:42:00,61.0,35.2,29.94,SSW,210,8.0,10.0,38,0.00,,,0.00,WeatherCatV1.11B39,2013-04-13 14:42:00,
2013-04-13 10:47:00,61.2,36.0,29.94,SW,230,8.0,12.0,39,0.00,,,0.00,WeatherCatV1.11B39,2013-04-13 14:47:00,
2013-04-13 10:52:00,61.5,36.3,29.94,West,275,8.0,8.0,39,0.00,,,0.00,WeatherCatV1.11B39,2013-04-13 14:52:00,
2013-04-13 10:57:00,61.9,36.7,29.94,SE,126,1.0,7.0,39,0.00,,,0.00,WeatherCatV1.11B39,2013-04-13 14:57:00,
2013-04-13 11:02:00,62.3,35.0,29.94,SW,222,8.0,9.0,36,0.00,,,0.00,WeatherCatV1.11B39,2013-04-13 15:02:00,
2013-04-13 11:07:00,62.4,34.4,29.94,WSW,239,7.0,12.0,35,0.00,,,0.00,WeatherCatV1.11B39,2013-04-13 15:07:00,
2013-04-13 11:12:00,62.4,34.4,29.94,SSE,167,4.0,7.0,35,0.00,,,0.00,WeatherCatV1.11B39,2013-04-13 15:12:00,
2013-04-13 11:17:00,62.6,33.8,29.94,South,188,8.0,9.0,34,0.00,,,0.00,WeatherCatV1.11B39,2013-04-13 15:17:00,
2013-04-13 11:22:00,62.8,34.7,29.94,West,273,4.0,8.0,35,0.00,,,0.00,WeatherCatV1.11B39,2013-04-13 15:22:00,
2013-04-13 11:27:00,63.1,32.0,29.94,South,190,6.0,15.0,31,0.00,,,0.00,WeatherCatV1.11B39,2013-04-13 15:27:00,
2013-04-13 11:32:00,63.5,32.3,29.94,West,259,11.0,13.0,31,0.00,,,0.00,WeatherCatV1.11B39,2013-04-13 15:32:00,
2013-04-13 11:37:00,64.1,32.0,29.94,SSW,196,11.0,13.0,30,0.00,,,0.00,WeatherCatV1.11B39,2013-04-13 15:37:00,
2013-04-13 11:42:00,64.3,32.2,29.94,SW,219,4.0,11.0,30,0.00,,,0.00,WeatherCatV1.11B39,2013-04-13 15:42:00,
2013-04-13 11:47:00,64.5,32.4,29.94,SSW,198,2.0,13.0,30,0.00,,,0.00,WeatherCatV1.11B39,2013-04-13 15:47:00,
2013-04-13 11:52:00,64.9,31.9,29.94,SW,227,5.0,12.0,29,0.00,,,0.00,WeatherCatV1.11B39,2013-04-13 15:52:00,
2013-04-13 11:57:00,65.1,32.1,29.94,West,262,5.0,12.0,29,0.00,,,0.00,WeatherCatV1.11B39,2013-04-13 15:57:00,
2013-04-13 12:02:00,65.3,31.4,29.94,WSW,239,10.0,10.0,28,0.00,,,0.00,WeatherCatV1.11B39,2013-04-13 16:02:00,
2013-04-13 12:07:00,65.5,30.6,29.94,WSW,250,8.0,11.0,27,0.00,,,0.00,WeatherCatV1.11B39,2013-04-13 16:07:00,
2013-04-13 12:12:00,65.6,32.5,29.94,WSW,243,2.0,3.0,29,0.00,,,0.00,WeatherCatV1.11B39,2013-04-13 16:12:00,
2013-04-13 12:17:00,66.2,32.1,29.93,SSW,207,4.0,7.0,28,0.00,,,0.00,WeatherCatV1.11B39,2013-04-13 16:17:00,
2013-04-13 12:22:00,66.6,31.6,29.93,WSW,247,5.0,7.0,27,0.00,,,0.00,WeatherCatV1.11B39,2013-04-13 16:22:00,
2013-04-13 12:27:00,67.1,33.8,29.93,WSW,246,8.0,11.0,29,0.00,,,0.00,WeatherCatV1.11B39,2013-04-13 16:27:00,
2013-04-13 12:32:00,67.3,31.2,29.93,WSW,256,5.0,10.0,26,0.00,,,0.00,WeatherCatV1.11B39,2013-04-13 16:32:00,
2013-04-13 12:37:00,67.7,29.6,29.93,West,279,8.0,12.0,24,0.00,,,0.00,WeatherCatV1.11B39,2013-04-13 16:37:00,
2013-04-13 12:42:00,68.0,28.8,29.93,SW,217,7.0,14.0,23,0.00,,,0.00,WeatherCatV1.11B39,2013-04-13 16:42:00,
2013-04-13 12:47:00,67.8,29.7,29.93,West,262,2.0,11.0,24,0.00,,,0.00,WeatherCatV1.11B39,2013-04-13 16:47:00,
2013-04-13 12:52:00,68.1,31.9,29.93,NW,316,7.0,7.0,26,0.00,,,0.00,WeatherCatV1.11B39,2013-04-13 16:52:00,
2013-04-13 12:57:00,68.8,30.5,29.93,WNW,284,14.0,14.0,24,0.00,,,0.00,WeatherCatV1.11B39,2013-04-13 16:57:00,
2013-04-13 13:02:00,69.0,31.7,29.93,WSW,244,2.0,6.0,25,0.00,,,0.00,WeatherCatV1.11B39,2013-04-13 17:02:00,
2013-04-13 13:08:00,69.4,30.0,29.93,West,262,10.0,19.0,23,0.00,,,0.00,WeatherCatV1.11B39,2013-04-13 17:08:00,
2013-04-13 13:13:00,69.0,30.7,29.93,WSW,256,8.0,11.0,24,0.00,,,0.00,WeatherCatV1.11B39,2013-04-13 17:13:00,
2013-04-13 13:18:00,68.8,32.5,29.93,SSW,194,4.0,8.0,26,0.00,,,0.00,WeatherCatV1.11B39,2013-04-13 17:18:00,
2013-04-13 13:23:00,69.0,33.6,29.93,SE,142,5.0,7.0,27,0.00,,,0.00,WeatherCatV1.11B39,2013-04-13 17:23:00,
2013-04-13 13:28:00,69.7,29.2,29.92,West,273,6.0,11.0,22,0.00,,,0.00,WeatherCatV1.11B39,2013-04-13 17:28:00,
2013-04-13 13:33:00,70.3,29.7,29.92,WSW,256,6.0,11.0,22,0.00,,,0.00,WeatherCatV1.11B39,2013-04-13 17:33:00,
2013-04-13 13:38:00,70.2,29.6,29.92,WSW,244,10.0,17.0,22,0.00,,,0.00,WeatherCatV1.11B39,2013-04-13 17:38:00,
2013-04-13 13:43:00,69.6,31.2,29.92,WSW,244,10.0,10.0,24,0.00,,,0.00,WeatherCatV1.11B39,2013-04-13 17:43:00,
2013-04-13 13:48:00,69.5,30.1,29.91,WSW,237,11.0,18.0,23,0.00,,,0.00,WeatherCatV1.11B39,2013-04-13 17:48:00,
2013-04-13 13:53:00,69.7,30.2,29.91,SW,216,13.0,13.0,23,0.00,,,0.00,WeatherCatV1.11B39,2013-04-13 17:53:00,
2013-04-13 13:58:00,69.9,30.4,29.91,SW,221,13.0,19.0,23,0.00,,,0.00,WeatherCatV1.11B39,2013-04-13 17:58:00,
2013-04-13 14:03:00,70.1,29.5,29.91,West,262,6.0,10.0,22,0.00,,,0.00,WeatherCatV1.11B39,2013-04-13 18:03:00,
2013-04-13 14:08:00,70.7,30.0,29.91,West,265,10.0,14.0,22,0.00,,,0.00,WeatherCatV1.11B39,2013-04-13 18:08:00,
2013-04-13 14:13:00,70.7,28.8,29.90,SSW,205,10.0,16.0,21,0.00,,,0.00,WeatherCatV1.11B39,2013-04-13 18:13:00,
2013-04-13 14:18:00,71.3,32.6,29.90,West,264,7.0,13.0,24,0.00,,,0.00,WeatherCatV1.11B39,2013-04-13 18:18:00,
2013-04-13 14:23:00,71.4,30.6,29.90,South,171,6.0,11.0,22,0.00,,,0.00,WeatherCatV1.11B39,2013-04-13 18:23:00,
2013-04-13 14:27:00,71.4,29.4,29.90,SSW,200,6.0,17.0,21,0.00,,,0.00,WeatherCatV1.11B39,2013-04-13 18:27:00,
2013-04-13 14:31:00,71.7,31.9,29.90,WSW,254,3.0,14.0,23,0.00,,,0.00,WeatherCatV1.11B39,2013-04-13 18:31:00,
2013-04-13 14:36:00,72.0,32.2,29.90,South,181,5.0,8.0,23,0.00,,,0.00,WeatherCatV1.11B39,2013-04-13 18:36:00,
2013-04-13 14:41:00,71.8,30.9,29.90,South,182,3.0,8.0,22,0.00,,,0.00,WeatherCatV1.11B39,2013-04-13 18:41:00,
2013-04-13 14:46:00,72.0,32.2,29.90,West,278,9.0,13.0,23,0.00,,,0.00,WeatherCatV1.11B39,2013-04-13 18:46:00,
2013-04-13 14:51:00,71.9,31.0,29.90,SSW,211,13.0,13.0,22,0.00,,,0.00,WeatherCatV1.11B39,2013-04-13 18:51:00,
2013-04-13 14:56:00,72.1,30.0,29.90,West,267,18.0,19.0,21,0.00,,,0.00,WeatherCatV1.11B39,2013-04-13 18:56:00,
2013-04-13 15:01:00,72.2,31.2,29.89,South,173,11.0,16.0,22,0.00,,,0.00,WeatherCatV1.11B39,2013-04-13 19:01:00,
2013-04-13 15:06:00,72.1,31.2,29.90,WSW,249,5.0,15.0,22,0.00,,,0.00,WeatherCatV1.11B39,2013-04-13 19:06:00,
2013-04-13 15:12:00,72.3,31.3,29.89,West,259,13.0,14.0,22,0.00,,,0.00,WeatherCatV1.11B39,2013-04-13 19:12:00,
2013-04-13 15:17:00,72.4,33.6,29.89,ESE,123,6.0,12.0,24,0.00,,,0.00,WeatherCatV1.11B39,2013-04-13 19:17:00,
2013-04-13 15:20:00,72.5,33.6,29.89,SSW,206,7.0,21.0,24,0.00,,,0.00,WeatherCatV1.15B25,2013-04-13 19:20:00,
2013-04-13 15:25:00,72.5,33.6,29.89,SSW,206,7.0,21.0,24,0.00,,,0.00,WeatherCatV1.15B25,2013-04-13 19:25:00,
2013-04-13 15:30:00,72.5,33.6,29.89,SSW,206,7.0,21.0,24,0.00,,,0.00,WeatherCatV1.15B25,2013-04-13 19:30:00,
2013-04-13 15:35:00,72.5,33.6,29.89,SSW,206,7.0,21.0,24,0.00,,,0.00,WeatherCatV1.15B25,2013-04-13 19:35:00,
2013-04-13 15:40:00,72.5,33.6,29.89,SSW,206,7.0,21.0,24,0.00,,,0.00,WeatherCatV1.15B25,2013-04-13 19:40:00,
2013-04-13 15:45:00,72.5,33.6,29.89,SSW,206,7.0,21.0,24,0.00,,,0.00,WeatherCatV1.15B25,2013-04-13 19:45:00,
2013-04-13 15:50:00,72.5,33.6,29.89,SSW,206,7.0,21.0,24,0.00,,,0.00,WeatherCatV1.15B25,2013-04-13 19:50:00,
2013-04-13 15:55:00,72.5,33.6,29.89,SSW,206,7.0,21.0,24,0.00,,,0.00,WeatherCatV1.15B25,2013-04-13 19:55:00,
2013-04-13 16:00:00,72.5,33.6,29.89,SSW,206,7.0,21.0,24,0.00,,,0.00,WeatherCatV1.15B25,2013-04-13 20:00:00,
2013-04-13 16:05:00,72.5,33.6,29.89,SSW,206,7.0,21.0,24,0.00,,,0.00,WeatherCatV1.15B25,2013-04-13 20:05:00,
2013-04-13 16:10:00,72.5,33.6,29.89,SSW,206,7.0,21.0,24,0.00,,,0.00,WeatherCatV1.15B25,2013-04-13 20:10:00,
2013-04-13 16:15:00,72.5,33.6,29.89,SSW,206,7.0,21.0,24,0.00,,,0.00,WeatherCatV1.15B25,2013-04-13 20:15:00,
2013-04-13 16:20:00,72.5,33.6,29.89,SSW,206,7.0,21.0,24,0.00,,,0.00,WeatherCatV1.15B25,2013-04-13 20:20:00,
2013-04-13 16:33:00,72.5,33.6,29.89,SSW,206,7.0,21.0,24,0.00,,,0.00,WeatherCatV1.15B25,2013-04-13 20:33:00,
2013-04-13 16:38:00,73.0,34.1,29.87,WSW,244,13.0,21.0,24,0.00,,,0.00,WeatherCatV1.15B25,2013-04-13 20:38:00,
2013-04-13 16:40:00,72.7,33.8,29.87,WSW,243,10.0,21.0,24,0.00,,,0.00,WeatherCatV1.15B25,2013-04-13 20:40:00,
2013-04-13 16:45:00,72.7,33.8,29.87,WSW,243,10.0,21.0,24,0.00,,,0.00,WeatherCatV1.15B25,2013-04-13 20:45:00,
2013-04-13 16:50:00,72.7,33.8,29.87,WSW,243,10.0,21.0,24,0.00,,,0.00,WeatherCatV1.15B25,2013-04-13 20:50:00,
2013-04-13 16:55:00,72.7,33.8,29.87,WSW,243,10.0,21.0,24,0.00,,,0.00,WeatherCatV1.15B25,2013-04-13 20:55:00,
2013-04-13 17:00:00,72.7,33.8,29.87,WSW,243,10.0,21.0,24,0.00,,,0.00,WeatherCatV1.15B25,2013-04-13 21:00:00,
2013-04-13 17:05:00,72.7,33.8,29.87,WSW,243,10.0,21.0,24,0.00,,,0.00,WeatherCatV1.15B25,2013-04-13 21:05:00,
2013-04-13 17:10:00,72.7,33.8,29.87,WSW,243,10.0,21.0,24,0.00,,,0.00,WeatherCatV1.15B25,2013-04-13 21:10:00,
2013-04-13 17:15:00,72.7,33.8,29.87,WSW,243,10.0,21.0,24,0.00,,,0.00,WeatherCatV1.15B25,2013-04-13 21:15:00,
2013-04-13 17:20:00,72.7,33.8,29.87,WSW,243,10.0,21.0,24,0.00,,,0.00,WeatherCatV1.15B25,2013-04-13 21:20:00,
2013-04-13 17:32:00,72.7,33.8,29.87,WSW,243,10.0,21.0,24,0.00,,,0.00,WeatherCatV1.15B25,2013-04-13 21:32:00,
2013-04-13 17:37:00,72.8,33.9,29.87,West,260,11.0,15.0,24,0.00,,,0.00,WeatherCatV1.15B25,2013-04-13 21:37:00,
2013-04-13 17:42:00,72.9,35.0,29.86,SW,225,7.0,12.0,25,0.00,,,0.00,WeatherCatV1.15B25,2013-04-13 21:42:00,
2013-04-13 17:47:00,73.3,35.3,29.87,SW,215,4.0,12.0,25,0.00,,,0.00,WeatherCatV1.15B25,2013-04-13 21:47:00,
2013-04-13 17:52:00,73.2,35.3,29.87,SSW,204,6.0,14.0,25,0.00,,,0.00,WeatherCatV1.15B25,2013-04-13 21:52:00,
2013-04-13 17:57:00,73.1,34.2,29.87,SW,227,7.0,14.0,24,0.00,,,0.00,WeatherCatV1.15B25,2013-04-13 21:57:00,
2013-04-13 18:02:00,73.0,36.1,29.87,SW,229,3.0,8.0,26,0.00,,,0.00,WeatherCatV1.15B25,2013-04-13 22:02:00,
2013-04-13 18:07:00,72.9,35.0,29.87,WNW,288,13.0,14.0,25,0.00,,,0.00,WeatherCatV1.15B25,2013-04-13 22:07:00,
2013-04-13 18:12:00,72.8,33.9,29.87,WSW,244,7.0,13.0,24,0.00,,,0.00,WeatherCatV1.15B25,2013-04-13 22:12:00,
2013-04-13 18:17:00,72.6,33.7,29.87,WSW,243,6.0,12.0,24,0.00,,,0.00,WeatherCatV1.15B25,2013-04-13 22:17:00,
2013-04-13 18:21:00,72.5,34.7,29.87,WSW,246,5.0,11.0,25,0.00,,,0.00,WeatherCatV1.15B25,2013-04-13 22:21:00,
2013-04-13 18:26:00,72.4,34.6,29.87,West,281,7.0,15.0,25,0.00,,,0.00,WeatherCatV1.15B25,2013-04-13 22:26:00,
2013-04-13 18:31:00,72.6,34.8,29.87,West,271,1.0,4.0,25,0.00,,,0.00,WeatherCatV1.15B25,2013-04-13 22:31:00,
2013-04-13 18:36:00,72.8,35.9,29.87,WSW,254,4.0,12.0,26,0.00,,,0.00,WeatherCatV1.15B25,2013-04-13 22:36:00,
2013-04-13 18:41:00,72.8,34.9,29.87,SW,236,1.0,7.0,25,0.00,,,0.00,WeatherCatV1.15B25,2013-04-13 22:41:00,
2013-04-13 18:46:00,72.7,33.8,29.88,West,280,6.0,13.0,24,0.00,,,0.00,WeatherCatV1.15B25,2013-04-13 22:46:00,
2013-04-13 18:51:00,72.5,35.7,29.87,WSW,244,3.0,6.0,26,0.00,,,0.00,WeatherCatV1.15B25,2013-04-13 22:51:00,
2013-04-13 18:56:00,72.2,33.4,29.88,SW,215,4.0,4.0,24,0.00,,,0.00,WeatherCatV1.15B25,2013-04-13 22:56:00,
2013-04-13 19:01:00,72.1,33.3,29.88,WSW,257,5.0,6.0,24,0.00,,,0.00,WeatherCatV1.15B25,2013-04-13 23:01:00,
2013-04-13 19:06:00,71.6,33.9,29.89,SW,215,4.0,6.0,25,0.00,,,0.00,WeatherCatV1.15B25,2013-04-13 23:06:00,
2013-04-13 19:11:00,71.0,33.4,29.89,WSW,247,6.0,7.0,25,0.00,,,0.00,WeatherCatV1.15B25,2013-04-13 23:11:00,
2013-04-13 19:16:00,70.5,33.0,29.89,WSW,238,12.0,12.0,25,0.00,,,0.00,WeatherCatV1.15B25,2013-04-13 23:16:00,
2013-04-13 19:21:00,70.1,33.6,29.89,West,260,3.0,4.0,26,0.00,,,0.00,WeatherCatV1.15B25,2013-04-13 23:21:00,
2013-04-13 19:26:00,69.8,33.4,29.89,West,262,6.0,7.0,26,0.00,,,0.00,WeatherCatV1.15B25,2013-04-13 23:26:00,
2013-04-13 19:31:00,69.5,34.0,29.89,SSW,208,4.0,7.0,27,0.00,,,0.00,WeatherCatV1.15B25,2013-04-13 23:31:00,
2013-04-13 19:36:00,69.3,34.8,29.89,West,271,2.0,6.0,28,0.00,,,0.00,WeatherCatV1.15B25,2013-04-13 23:36:00,
2013-04-13 19:41:00,69.2,33.8,29.89,WSW,256,4.0,7.0,27,0.00,,,0.00,WeatherCatV1.15B25,2013-04-13 23:41:00,
2013-04-13 19:46:00,69.0,34.5,29.89,WSW,244,3.0,11.0,28,0.00,,,0.00,WeatherCatV1.15B25,2013-04-13 23:46:00,
2013-04-13 19:51:00,68.8,34.4,29.89,SW,234,3.0,11.0,28,0.00,,,0.00,WeatherCatV1.15B25,2013-04-13 23:51:00,
2013-04-13 19:56:00,68.6,36.8,29.89,West,264,5.0,5.0,31,0.00,,,0.00,WeatherCatV1.15B25,2013-04-13 23:56:00,
2013-04-13 20:01:00,68.2,34.7,29.89,West,265,3.0,7.0,29,0.00,,,0.00,WeatherCatV1.15B25,2013-04-14 00:01:00,
2013-04-13 20:06:00,67.8,37.6,29.89,WSW,258,2.0,7.0,33,0.00,,,0.00,WeatherCatV1.15B25,2013-04-14 00:06:00,
2013-04-13 20:11:00,67.4,34.9,29.89,WSW,253,4.0,7.0,30,0.00,,,0.00,WeatherCatV1.15B25,2013-04-14 00:11:00,
2013-04-13 20:16:00,67.1,35.4,29.90,SW,215,4.0,6.0,31,0.00,,,0.00,WeatherCatV1.15B25,2013-04-14 00:16:00,
2013-04-13 20:21:00,66.8,36.0,29.90,WSW,245,3.0,4.0,32,0.00,,,0.00,WeatherCatV1.15B25,2013-04-14 00:21:00,
2013-04-13 20:26:00,66.4,37.2,29.90,WSW,241,2.0,2.0,34,0.00,,,0.00,WeatherCatV1.15B25,2013-04-14 00:26:00,
2013-04-13 20:31:00,66.1,35.4,29.90,WSW,249,0.0,2.0,32,0.00,,,0.00,WeatherCatV1.15B25,2013-04-14 00:31:00,
2013-04-13 20:36:00,65.8,35.1,29.90,WSW,249,0.0,2.0,32,0.00,,,0.00,WeatherCatV1.15B25,2013-04-14 00:36:00,
2013-04-13 20:41:00,65.6,35.7,29.90,WSW,249,0.0,0.0,33,0.00,,,0.00,WeatherCatV1.15B25,2013-04-14 00:41:00,
2013-04-13 20:46:00,65.3,36.2,29.90,WSW,249,0.0,0.0,34,0.00,,,0.00,WeatherCatV1.15B25,2013-04-14 00:46:00,
2013-04-13 20:51:00,65.0,38.8,29.90,WSW,249,0.0,0.0,38,0.00,,,0.00,WeatherCatV1.15B25,2013-04-14 00:51:00,
2013-04-13 20:56:00,64.4,36.1,29.91,WSW,249,2.0,2.0,35,0.00,,,0.00,WeatherCatV1.15B25,2013-04-14 00:56:00,
2013-04-13 21:01:00,63.8,37.0,29.91,WSW,249,0.0,0.0,37,0.00,,,0.00,WeatherCatV1.15B25,2013-04-14 01:01:00,
2013-04-13 21:06:00,63.2,37.8,29.91,WSW,249,0.0,0.0,39,0.00,,,0.00,WeatherCatV1.15B25,2013-04-14 01:06:00,
2013-04-13 21:11:00,62.7,38.0,29.91,WSW,249,0.0,0.0,40,0.00,,,0.00,WeatherCatV1.15B25,2013-04-14 01:11:00,
2013-04-13 21:16:00,62.2,37.6,29.91,WSW,249,0.0,0.0,40,0.00,,,0.00,WeatherCatV1.15B25,2013-04-14 01:16:00,
2013-04-13 21:21:00,61.8,36.6,29.92,WSW,249,0.0,0.0,39,0.00,,,0.00,WeatherCatV1.15B25,2013-04-14 01:21:00,
2013-04-13 21:26:00,61.4,37.5,29.92,WSW,249,0.0,0.0,41,0.00,,,0.00,WeatherCatV1.15B25,2013-04-14 01:26:00,
2013-04-13 21:31:00,61.0,37.7,29.92,WSW,249,0.0,1.0,42,0.00,,,0.00,WeatherCatV1.15B25,2013-04-14 01:31:00,
2013-04-13 21:36:00,60.4,37.8,29.92,WSW,249,1.0,3.0,43,0.00,,,0.00,WeatherCatV1.15B25,2013-04-14 01:36:00,
2013-04-13 21:41:00,59.9,40.7,29.92,WSW,249,2.0,2.0,49,0.00,,,0.00,WeatherCatV1.15B25,2013-04-14 01:41:00,
2013-04-13 21:46:00,59.2,38.4,29.92,WSW,249,1.0,3.0,46,0.00,,,0.00,WeatherCatV1.15B25,2013-04-14 01:46:00,
2013-04-13 21:51:00,58.9,39.2,29.92,WSW,249,2.0,2.0,48,0.00,,,0.00,WeatherCatV1.15B25,2013-04-14 01:51:00,
2013-04-13 21:56:00,58.6,40.0,29.92,WSW,249,0.0,0.0,50,0.00,,,0.00,WeatherCatV1.15B25,2013-04-14 01:56:00,
2013-04-13 22:01:00,58.3,38.7,29.93,WSW,249,0.0,0.0,48,0.00,,,0.00,WeatherCatV1.15B25,2013-04-14 02:01:00,
2013-04-13 22:06:00,58.0,39.5,29.93,WSW,249,0.0,0.0,50,0.00,,,0.00,WeatherCatV1.15B25,2013-04-14 02:06:00,
2013-04-13 22:11:00,57.6,39.6,29.93,WSW,249,0.0,0.0,51,0.00,,,0.00,WeatherCatV1.15B25,2013-04-14 02:11:00,
2013-04-13 22:16:00,57.3,39.8,29.92,WSW,249,0.0,0.0,52,0.00,,,0.00,WeatherCatV1.15B25,2013-04-14 02:16:00,
2013-04-13 22:21:00,56.9,39.9,29.92,WSW,249,0.0,0.0,53,0.00,,,0.00,WeatherCatV1.15B25,2013-04-14 02:21:00,
2013-04-13 22:26:00,56.6,41.5,29.92,WSW,249,0.0,0.0,57,0.00,,,0.00,WeatherCatV1.15B25,2013-04-14 02:26:00,
2013-04-13 22:31:00,56.2,39.3,29.92,WSW,249,0.0,0.0,53,0.00,,,0.00,WeatherCatV1.15B25,2013-04-14 02:31:00,
2013-04-13 22:36:00,56.0,38.6,29.92,WSW,249,0.0,0.0,52,0.00,,,0.00,WeatherCatV1.15B25,2013-04-14 02:36:00,
2013-04-13 22:41:00,55.9,40.9,29.92,WSW,249,0.0,2.0,57,0.00,,,0.00,WeatherCatV1.15B25,2013-04-14 02:41:00,
2013-04-13 22:46:00,55.6,39.2,29.92,WSW,249,0.0,2.0,54,0.00,,,0.00,WeatherCatV1.15B25,2013-04-14 02:46:00,
2013-04-13 22:51:00,55.5,40.1,29.92,WSW,249,0.0,0.0,56,0.00,,,0.00,WeatherCatV1.15B25,2013-04-14 02:51:00,
2013-04-13 22:56:00,55.3,39.4,29.92,WSW,249,0.0,0.0,55,0.00,,,0.00,WeatherCatV1.15B25,2013-04-14 02:56:00,
2013-04-13 23:01:00,55.1,40.6,29.92,WSW,249,0.0,0.0,58,0.00,,,0.00,WeatherCatV1.15B25,2013-04-14 03:01:00,
2013-04-13 23:06:00,54.8,43.3,29.92,WSW,249,0.0,0.0,65,0.00,,,0.00,WeatherCatV1.15B25,2013-04-14 03:06:00,
2013-04-13 23:11:00,54.5,40.5,29.93,WSW,249,0.0,0.0,59,0.00,,,0.00,WeatherCatV1.15B25,2013-04-14 03:11:00,
2013-04-13 23:16:00,54.2,42.7,29.93,WSW,249,1.0,2.0,65,0.00,,,0.00,WeatherCatV1.15B25,2013-04-14 03:16:00,
2013-04-13 23:21:00,53.9,40.3,29.93,WSW,249,0.0,2.0,60,0.00,,,0.00,WeatherCatV1.15B25,2013-04-14 03:21:00,
2013-04-13 23:26:00,53.7,41.4,29.93,WSW,249,0.0,0.0,63,0.00,,,0.00,WeatherCatV1.15B25,2013-04-14 03:26:00,
2013-04-13 23:31:00,53.6,41.7,29.94,WSW,249,0.0,0.0,64,0.00,,,0.00,WeatherCatV1.15B25,2013-04-14 03:31:00,
2013-04-13 23:36:00,53.4,40.3,29.94,WSW,249,0.0,0.0,61,0.00,,,0.00,WeatherCatV1.15B25,2013-04-14 03:36:00,
2013-04-13 23:41:00,53.3,39.8,29.94,WSW,249,0.0,0.0,60,0.00,,,0.00,WeatherCatV1.15B25,2013-04-14 03:41:00,
2013-04-13 23:46:00,53.2,40.5,29.94,WSW,249,2.0,2.0,62,0.00,,,0.00,WeatherCatV1.15B25,2013-04-14 03:46:00,
2013-04-13 23:51:00,53.0,41.2,29.95,WSW,249,0.0,2.0,64,0.00,,,0.00,WeatherCatV1.15B25,2013-04-14 03:51:00,
2013-04-13 23:56:00,52.7,41.3,29.94,WSW,249,1.0,2.0,65,0.00,,,0.00,WeatherCatV1.15B25,2013-04-14 03:56:00,